Merefa, Ukraine
Current Conditions -  °F | °C
As of 11:00 PM on Saturday 20 Dec 2014 (Local Time) from UKHH Reporting Station
Overcast Overcast  
Wind Chill: 39°   Ceiling: 1000
Heat Index: 43°   Visibility: 6mi
Dew Point: 39°   Wind: 7mph
Humidity: 87%   Direction: 280°W
Pressure: 29.77"   Gusts: NA
Location:  49.82°N, 36.05°E
Report Text: UKHH 202000Z 28003MPS 9000 BKN010 OVC016 06/04 Q1008 25290063 NOSIG
Loading
Personal Weather Stations






























Interactive Weather Map New forecast layout! Learn more

10-Day Weather Forecast

Advertisements
Track Severe Weather on mobile